createdAt,value
2018-12-06T00:01:22.119Z,3.50
2018-12-06T00:03:49.722Z,3.43
2018-12-06T00:06:17.300Z,3.60
2018-12-06T00:08:44.927Z,3.53
2018-12-06T00:11:12.539Z,3.17
2018-12-06T00:13:40.201Z,3.43
2018-12-06T00:16:07.823Z,3.67
2018-12-06T00:18:35.429Z,3.70
2018-12-06T00:21:02.987Z,3.43
2018-12-06T00:23:30.563Z,3.20
2018-12-06T00:25:58.203Z,3.40
2018-12-06T00:28:25.810Z,4.07
2018-12-06T00:30:53.345Z,3.23
2018-12-06T00:33:20.994Z,3.50
2018-12-06T00:35:48.775Z,2.90
2018-12-06T00:38:16.583Z,4.07
2018-12-06T00:40:45.094Z,3.27
2018-12-06T00:43:12.656Z,3.77
2018-12-06T00:45:40.215Z,3.80
2018-12-06T00:48:07.835Z,3.37
2018-12-06T00:50:35.400Z,2.97
2018-12-06T00:53:02.969Z,3.40
2018-12-06T00:55:30.547Z,3.27
2018-12-06T00:57:58.118Z,3.17
2018-12-06T01:00:25.719Z,3.43
2018-12-06T01:02:53.259Z,3.20
2018-12-06T01:05:20.956Z,3.70
2018-12-06T01:07:48.494Z,2.70
2018-12-06T01:10:25.864Z,3.57
2018-12-06T01:12:53.516Z,3.17
2018-12-06T01:15:21.188Z,3.20
2018-12-06T01:17:48.737Z,3.20
2018-12-06T01:20:16.464Z,2.77
2018-12-06T01:22:44.122Z,3.40
2018-12-06T01:25:11.698Z,3.47
2018-12-06T01:27:39.311Z,2.77
2018-12-06T01:30:06.957Z,3.07
2018-12-06T01:32:34.609Z,3.73
2018-12-06T01:35:02.174Z,2.80
2018-12-06T01:37:29.763Z,3.00
2018-12-06T01:39:57.373Z,3.17
2018-12-06T01:42:25.038Z,3.80
2018-12-06T01:44:52.660Z,3.70
2018-12-06T01:47:20.288Z,2.80
2018-12-06T01:49:47.840Z,3.63
2018-12-06T01:52:15.415Z,3.30
2018-12-06T01:54:43.075Z,3.43
2018-12-06T01:57:10.639Z,3.43
2018-12-06T01:59:38.279Z,3.47
2018-12-06T02:02:05.898Z,3.77
2018-12-06T02:04:33.464Z,3.80
2018-12-06T02:07:01.076Z,3.50
2018-12-06T02:09:28.628Z,3.67
2018-12-06T02:11:56.285Z,3.53
2018-12-06T02:14:23.884Z,3.53
2018-12-06T02:16:51.515Z,3.53
2018-12-06T02:19:19.077Z,3.83
2018-12-06T02:21:46.690Z,3.57
2018-12-06T02:24:14.294Z,3.27
2018-12-06T02:26:41.918Z,3.83
2018-12-06T02:29:09.531Z,3.83
2018-12-06T02:31:37.179Z,3.30
2018-12-06T02:34:04.811Z,3.33
2018-12-06T02:36:32.359Z,3.10
2018-12-06T02:38:59.922Z,3.23
2018-12-06T02:41:27.522Z,3.63
2018-12-06T02:43:55.130Z,3.27
2018-12-06T02:46:22.858Z,3.60
2018-12-06T02:48:50.514Z,3.60
2018-12-06T02:51:18.049Z,3.67
2018-12-06T02:53:45.627Z,3.93
2018-12-06T02:56:13.219Z,3.20
2018-12-06T02:58:40.868Z,3.40
2018-12-06T03:01:08.513Z,4.33
2018-12-06T03:03:36.079Z,3.70
2018-12-06T03:06:03.659Z,3.70
2018-12-06T03:08:31.298Z,3.67
2018-12-06T03:10:58.866Z,4.43
2018-12-06T03:13:26.435Z,3.23
2018-12-06T03:16:10.685Z,3.53
2018-12-06T03:18:38.335Z,3.37
2018-12-06T03:21:05.898Z,3.53
2018-12-06T03:23:33.500Z,3.83
2018-12-06T03:26:01.119Z,3.47
2018-12-06T03:28:28.678Z,4.03
2018-12-06T03:30:56.255Z,3.83
2018-12-06T03:33:24.130Z,3.47
2018-12-06T03:35:51.784Z,3.00
2018-12-06T03:38:19.355Z,3.63
2018-12-06T03:40:46.991Z,3.37
2018-12-06T03:43:14.557Z,3.10
2018-12-06T03:45:42.194Z,3.03
2018-12-06T03:48:09.800Z,3.37
2018-12-06T03:50:37.395Z,3.00
2018-12-06T03:53:05.002Z,3.43
2018-12-06T03:55:32.611Z,2.83
2018-12-06T03:58:00.196Z,3.03
2018-12-06T04:00:27.837Z,3.20
2018-12-06T04:02:55.377Z,3.00
2018-12-06T04:05:23.011Z,3.03
2018-12-06T04:07:50.570Z,2.83
2018-12-06T04:10:18.159Z,3.27
2018-12-06T04:12:45.705Z,3.30
2018-12-06T04:15:13.328Z,2.80
2018-12-06T04:17:40.866Z,2.93
2018-12-06T04:20:08.428Z,3.20
2018-12-06T04:22:36.038Z,2.93
2018-12-06T04:25:03.842Z,3.00
2018-12-06T04:27:31.514Z,4.27
2018-12-06T04:29:59.121Z,2.73
2018-12-06T04:32:26.687Z,2.57
2018-12-06T04:34:54.249Z,3.17
2018-12-06T04:37:21.857Z,3.10
2018-12-06T04:39:49.459Z,2.50
2018-12-06T04:42:17.030Z,2.97
2018-12-06T04:44:44.687Z,3.27
2018-12-06T04:47:18.282Z,2.77
2018-12-06T04:49:45.847Z,3.33
2018-12-06T04:52:13.524Z,2.80
2018-12-06T04:54:41.167Z,3.30
2018-12-06T04:57:08.792Z,2.87
2018-12-06T04:59:36.408Z,2.80
2018-12-06T05:02:04.178Z,2.60
2018-12-06T05:04:31.734Z,2.97
2018-12-06T05:06:59.383Z,2.80
2018-12-06T05:09:26.931Z,3.00
2018-12-06T05:11:54.509Z,2.60
2018-12-06T05:14:22.059Z,2.57
2018-12-06T05:16:49.629Z,2.70
2018-12-06T05:19:17.241Z,2.90
2018-12-06T05:21:44.855Z,2.60
2018-12-06T05:24:12.425Z,2.43
2018-12-06T05:26:40.063Z,2.40
2018-12-06T05:29:07.632Z,2.77
2018-12-06T05:31:35.207Z,2.70
2018-12-06T05:34:02.859Z,2.03
2018-12-06T05:36:30.448Z,2.03
2018-12-06T05:38:58.009Z,2.70
2018-12-06T05:41:25.648Z,2.53
2018-12-06T05:43:53.276Z,2.60
2018-12-06T05:46:20.823Z,2.97
2018-12-06T05:48:48.384Z,2.33
2018-12-06T05:51:15.982Z,2.47
2018-12-06T05:53:43.539Z,2.27
2018-12-06T05:56:11.074Z,3.53
2018-12-06T05:58:38.660Z,2.40
2018-12-06T06:01:06.256Z,2.73
2018-12-06T06:03:33.886Z,2.40
2018-12-06T06:06:01.551Z,2.60
2018-12-06T06:08:29.213Z,2.07
2018-12-06T06:10:56.783Z,1.97
2018-12-06T06:13:24.447Z,2.67
2018-12-06T06:15:52.115Z,2.43
2018-12-06T06:18:19.763Z,2.87
2018-12-06T06:20:47.372Z,2.33
2018-12-06T06:23:15.443Z,2.23
2018-12-06T06:25:43.056Z,2.30
2018-12-06T06:28:10.616Z,2.43
2018-12-06T06:30:38.203Z,2.60
2018-12-06T06:33:05.890Z,2.60
2018-12-06T06:35:33.495Z,2.30
2018-12-06T06:38:01.051Z,2.37
2018-12-06T06:40:28.727Z,2.93
2018-12-06T06:42:56.383Z,2.80
2018-12-06T06:45:24.155Z,2.60
2018-12-06T06:47:51.758Z,2.37
2018-12-06T06:50:19.370Z,2.60
2018-12-06T06:52:46.934Z,2.60
2018-12-06T06:55:14.552Z,2.13
2018-12-06T06:57:42.155Z,2.70
2018-12-06T07:00:19.747Z,2.67
2018-12-06T07:02:47.316Z,2.63
2018-12-06T07:05:14.982Z,2.83
2018-12-06T07:07:42.534Z,2.33
2018-12-06T07:10:10.232Z,2.33
2018-12-06T07:12:37.848Z,2.90
2018-12-06T07:15:05.658Z,2.90
2018-12-06T07:17:33.306Z,2.50
2018-12-06T07:20:01.000Z,2.60
2018-12-06T07:22:28.598Z,3.00
2018-12-06T07:24:56.232Z,2.63
2018-12-06T07:27:23.995Z,2.20
2018-12-06T07:29:51.651Z,2.17
2018-12-06T07:32:19.317Z,2.33
2018-12-06T07:34:46.980Z,2.90
2018-12-06T07:37:14.589Z,2.20
2018-12-06T07:39:42.135Z,2.50
2018-12-06T07:42:09.701Z,2.10
2018-12-06T07:44:37.320Z,2.47
2018-12-06T07:47:04.944Z,2.50
2018-12-06T07:49:32.546Z,2.80
2018-12-06T07:52:00.122Z,2.10
2018-12-06T07:54:27.715Z,2.70
2018-12-06T07:56:55.286Z,2.67
2018-12-06T07:59:22.949Z,2.40
2018-12-06T08:01:50.586Z,2.20
2018-12-06T08:04:18.146Z,2.40
2018-12-06T08:06:45.819Z,1.93
2018-12-06T08:09:13.400Z,2.80
2018-12-06T08:11:41.035Z,2.00
2018-12-06T08:14:08.642Z,2.37
2018-12-06T08:16:36.272Z,2.50
2018-12-06T08:19:03.916Z,2.23
2018-12-06T08:21:31.795Z,2.10
2018-12-06T08:23:59.347Z,2.13
2018-12-06T08:26:26.886Z,1.73
2018-12-06T08:28:54.468Z,2.10
2018-12-06T08:31:22.027Z,1.90
2018-12-06T08:33:49.752Z,2.30
2018-12-06T08:36:17.353Z,1.70
2018-12-06T08:38:45.013Z,2.10
2018-12-06T08:41:12.574Z,1.90
2018-12-06T08:43:40.235Z,1.93
2018-12-06T08:46:07.899Z,1.73
2018-12-06T08:48:35.471Z,1.70
2018-12-06T08:51:03.031Z,1.57
2018-12-06T08:53:30.701Z,1.77
2018-12-06T08:55:58.239Z,1.80
2018-12-06T08:58:25.867Z,1.60
2018-12-06T09:00:53.409Z,1.90
2018-12-06T09:03:21.027Z,1.77
2018-12-06T09:05:48.598Z,1.50
2018-12-06T09:08:16.210Z,1.77
2018-12-06T09:10:43.803Z,1.67
2018-12-06T09:13:11.532Z,1.60
2018-12-06T09:15:39.183Z,2.10
2018-12-06T09:18:06.908Z,1.60
2018-12-06T09:20:34.465Z,2.23
2018-12-06T09:23:02.057Z,2.20
2018-12-06T09:25:29.680Z,1.87
2018-12-06T09:27:57.230Z,1.57
2018-12-06T09:30:24.983Z,2.10
2018-12-06T09:32:52.634Z,1.97
2018-12-06T09:35:20.292Z,2.60
2018-12-06T09:37:47.834Z,2.67
2018-12-06T09:40:15.436Z,2.50
2018-12-06T09:42:42.987Z,1.90
2018-12-06T09:45:10.739Z,1.77
2018-12-06T09:47:38.340Z,1.80
2018-12-06T09:50:06.506Z,1.63
2018-12-06T09:52:34.058Z,2.07
2018-12-06T09:55:01.668Z,1.80
2018-12-06T09:57:29.321Z,2.23
2018-12-06T09:59:56.963Z,1.80
2018-12-06T10:02:24.510Z,2.33
2018-12-06T10:04:52.145Z,1.50
2018-12-06T10:07:19.734Z,1.60
2018-12-06T10:09:47.406Z,2.00
2018-12-06T10:12:14.987Z,1.57
2018-12-06T10:14:42.668Z,1.97
2018-12-06T10:17:10.349Z,2.17
2018-12-06T10:19:37.910Z,2.03
2018-12-06T10:22:05.491Z,1.37
2018-12-06T10:24:33.040Z,1.73
2018-12-06T10:27:00.637Z,2.20
2018-12-06T10:29:28.251Z,1.93
2018-12-06T10:31:55.866Z,2.10
2018-12-06T10:34:23.417Z,2.03
2018-12-06T10:36:51.091Z,1.63
2018-12-06T10:39:18.760Z,1.70
2018-12-06T10:41:46.422Z,1.87
2018-12-06T10:44:27.602Z,2.10
2018-12-06T10:46:55.254Z,1.80
2018-12-06T10:49:22.966Z,1.60
2018-12-06T10:51:50.592Z,1.60
2018-12-06T10:54:18.134Z,1.87
2018-12-06T10:56:45.804Z,2.10
2018-12-06T10:59:13.521Z,2.13
2018-12-06T11:01:46.812Z,1.93
2018-12-06T11:04:14.474Z,2.10
2018-12-06T11:06:42.067Z,1.40
2018-12-06T11:09:09.622Z,1.67
2018-12-06T11:11:37.232Z,1.73
2018-12-06T11:14:04.797Z,2.10
2018-12-06T11:16:32.347Z,1.93
2018-12-06T11:19:43.346Z,1.80
2018-12-06T11:22:10.936Z,1.63
2018-12-06T11:24:38.490Z,1.63
2018-12-06T11:27:06.071Z,1.63
2018-12-06T11:29:33.620Z,1.83
2018-12-06T11:32:01.196Z,2.40
2018-12-06T11:34:28.715Z,2.07
2018-12-06T11:36:56.250Z,1.93
2018-12-06T11:39:23.807Z,1.93
2018-12-06T11:41:51.401Z,1.80
2018-12-06T11:44:18.952Z,1.93
2018-12-06T11:46:46.536Z,2.37
2018-12-06T11:49:14.066Z,2.30
2018-12-06T11:51:41.660Z,1.90
2018-12-06T11:54:09.252Z,1.80
2018-12-06T11:56:36.794Z,2.23
2018-12-06T11:59:04.362Z,2.20
2018-12-06T12:01:31.875Z,2.93
2018-12-06T12:03:59.429Z,1.90
2018-12-06T12:06:26.965Z,2.43
2018-12-06T12:08:54.516Z,2.03
2018-12-06T12:11:22.037Z,2.67
2018-12-06T12:13:49.660Z,2.13
2018-12-06T12:16:17.194Z,2.17
2018-12-06T12:18:44.768Z,2.30
2018-12-06T12:21:12.837Z,2.73
2018-12-06T12:23:40.436Z,2.17
2018-12-06T12:26:07.953Z,3.07
2018-12-06T12:28:35.526Z,2.37
2018-12-06T12:31:03.132Z,2.27
2018-12-06T12:33:30.729Z,2.63
2018-12-06T12:35:58.251Z,2.10
2018-12-06T12:38:25.857Z,2.30
2018-12-06T12:40:53.476Z,2.37
2018-12-06T12:43:21.057Z,2.10
2018-12-06T12:45:48.580Z,2.47
2018-12-06T12:48:16.106Z,2.87
2018-12-06T12:50:43.677Z,2.57
2018-12-06T12:53:11.255Z,2.67
2018-12-06T12:55:38.858Z,2.30
2018-12-06T12:58:06.393Z,2.20
2018-12-06T13:00:34.013Z,2.60
2018-12-06T13:03:01.556Z,2.37
2018-12-06T13:05:30.918Z,2.40
2018-12-06T13:07:58.688Z,3.20
2018-12-06T13:10:26.264Z,2.73
2018-12-06T13:12:53.784Z,2.77
2018-12-06T13:15:21.341Z,3.13
2018-12-06T13:17:48.876Z,2.43
2018-12-06T13:20:16.456Z,2.73
2018-12-06T13:22:43.993Z,2.90
2018-12-06T13:25:11.588Z,2.97
2018-12-06T13:27:39.115Z,2.87
2018-12-06T13:30:06.744Z,3.30
2018-12-06T13:32:34.313Z,3.30
2018-12-06T13:35:01.917Z,3.60
2018-12-06T13:37:29.500Z,3.33
2018-12-06T13:39:57.147Z,3.40
2018-12-06T13:42:24.737Z,2.83
2018-12-06T13:44:52.326Z,3.30
2018-12-06T13:47:19.920Z,3.60
2018-12-06T13:49:47.481Z,3.17
2018-12-06T13:52:15.111Z,3.50
2018-12-06T13:54:42.690Z,3.97
2018-12-06T13:57:10.239Z,4.70
2018-12-06T13:59:37.777Z,4.20
2018-12-06T14:02:05.446Z,3.77
2018-12-06T14:04:32.980Z,4.33
2018-12-06T14:07:00.535Z,4.27
2018-12-06T14:09:28.092Z,3.50
2018-12-06T14:11:55.649Z,4.40
2018-12-06T14:14:23.188Z,4.40
2018-12-06T14:16:50.752Z,4.53
2018-12-06T14:19:18.328Z,5.07
2018-12-06T14:21:45.875Z,6.63
2018-12-06T14:24:13.421Z,4.73
2018-12-06T14:26:40.986Z,5.80
2018-12-06T14:29:08.523Z,5.57
2018-12-06T14:31:36.090Z,5.47
2018-12-06T14:34:03.643Z,5.07
2018-12-06T14:36:31.220Z,5.67
2018-12-06T14:38:58.745Z,5.90
2018-12-06T14:41:26.341Z,7.07
2018-12-06T14:43:53.910Z,6.83
2018-12-06T14:46:21.444Z,5.90
2018-12-06T14:48:49.004Z,5.50
2018-12-06T14:51:16.529Z,5.97
2018-12-06T14:53:44.173Z,6.50
2018-12-06T14:56:11.703Z,7.27
2018-12-06T14:58:39.284Z,6.07
2018-12-06T15:01:06.864Z,6.13
2018-12-06T15:03:34.411Z,5.57
2018-12-06T15:06:01.941Z,5.10
2018-12-06T15:08:29.504Z,5.50
2018-12-06T15:10:57.073Z,6.00
2018-12-06T15:13:24.644Z,5.33
2018-12-06T15:15:52.168Z,5.73
2018-12-06T15:18:19.729Z,5.70
2018-12-06T15:20:47.346Z,5.20
2018-12-06T15:23:14.917Z,6.27
2018-12-06T15:25:42.463Z,5.70
2018-12-06T15:28:10.042Z,6.23
2018-12-06T15:30:37.607Z,6.60
2018-12-06T15:33:05.201Z,6.20
2018-12-06T15:35:32.790Z,6.27
2018-12-06T15:38:00.366Z,6.13
2018-12-06T15:40:27.911Z,7.10
2018-12-06T15:42:55.470Z,6.67
2018-12-06T15:45:23.144Z,6.73
2018-12-06T15:47:50.695Z,6.97
2018-12-06T15:50:18.263Z,6.63
2018-12-06T15:52:45.833Z,7.70
2018-12-06T15:55:13.416Z,7.07
2018-12-06T15:57:40.941Z,7.73
2018-12-06T16:00:10.508Z,7.10
2018-12-06T16:02:38.039Z,7.67
2018-12-06T16:05:06.595Z,7.43
2018-12-06T16:07:34.124Z,8.03
2018-12-06T16:10:01.671Z,8.30
2018-12-06T16:12:29.212Z,7.43
2018-12-06T16:14:56.780Z,7.93
2018-12-06T16:17:24.319Z,7.57
2018-12-06T16:19:51.855Z,8.13
2018-12-06T16:22:19.384Z,8.57
2018-12-06T16:24:46.999Z,8.80
2018-12-06T16:27:14.548Z,9.27
2018-12-06T16:29:51.233Z,8.83
2018-12-06T16:32:11.752Z,9.50
2018-12-06T16:34:39.307Z,9.37
2018-12-06T16:37:06.833Z,9.43
2018-12-06T16:39:34.446Z,8.60
2018-12-06T16:42:02.031Z,10.77
2018-12-06T16:44:29.609Z,10.13
2018-12-06T16:46:57.208Z,10.33
2018-12-06T16:49:24.731Z,9.47
2018-12-06T16:51:52.450Z,9.63
2018-12-06T16:54:20.022Z,10.57
2018-12-06T16:56:47.574Z,9.73
2018-12-06T16:59:15.171Z,10.03
2018-12-06T17:01:42.717Z,10.03
2018-12-06T17:04:10.243Z,10.80
2018-12-06T17:06:37.829Z,10.23
2018-12-06T17:09:06.378Z,10.03
2018-12-06T17:11:34.138Z,10.43
2018-12-06T17:14:01.692Z,10.67
2018-12-06T17:16:29.270Z,10.23
2018-12-06T17:18:56.912Z,10.67
2018-12-06T17:21:24.466Z,10.27
2018-12-06T17:23:52.034Z,9.93
2018-12-06T17:26:19.643Z,11.60
2018-12-06T17:28:47.201Z,15.40
2018-12-06T17:31:14.774Z,10.40
2018-12-06T17:33:42.313Z,9.97
2018-12-06T17:36:09.866Z,10.57
2018-12-06T17:38:37.396Z,10.63
2018-12-06T17:41:04.966Z,10.03
2018-12-06T17:43:32.568Z,10.13
2018-12-06T17:46:00.201Z,9.83
2018-12-06T17:48:27.754Z,13.40
2018-12-06T17:50:55.316Z,12.53
2018-12-06T17:53:22.848Z,11.43
2018-12-06T17:55:52.499Z,11.30
2018-12-06T17:58:20.084Z,11.10
2018-12-06T18:00:47.668Z,12.73
2018-12-06T18:03:15.224Z,12.77
2018-12-06T18:05:42.801Z,13.10
2018-12-06T18:08:10.400Z,10.70
2018-12-06T18:10:38.520Z,11.30
2018-12-06T18:13:06.119Z,11.17
2018-12-06T18:15:34.100Z,10.87
2018-12-06T18:18:01.660Z,10.73
2018-12-06T18:20:29.229Z,11.30
2018-12-06T18:22:56.779Z,12.70
2018-12-06T18:25:24.403Z,11.83
2018-12-06T18:27:52.037Z,13.00
2018-12-06T18:30:19.602Z,12.60
2018-12-06T18:32:47.265Z,10.97
2018-12-06T18:35:14.924Z,10.43
2018-12-06T18:37:42.505Z,11.40
2018-12-06T18:40:10.095Z,11.60
2018-12-06T18:42:37.726Z,11.47
2018-12-06T18:45:05.774Z,11.03
2018-12-06T18:47:33.418Z,11.00
2018-12-06T18:50:01.020Z,11.50
2018-12-06T18:52:28.662Z,11.87
2018-12-06T18:54:56.223Z,11.73
2018-12-06T18:57:23.794Z,13.17
2018-12-06T18:59:51.502Z,12.47
2018-12-06T19:02:19.114Z,13.03
2018-12-06T19:04:46.795Z,13.00
2018-12-06T19:07:14.352Z,12.50
2018-12-06T19:09:41.999Z,13.47
2018-12-06T19:12:09.555Z,12.97
2018-12-06T19:14:37.180Z,13.27
2018-12-06T19:17:04.792Z,13.23
2018-12-06T19:19:32.406Z,12.87
2018-12-06T19:21:59.961Z,13.17
2018-12-06T19:24:27.635Z,13.17
2018-12-06T19:26:55.190Z,13.13
2018-12-06T19:29:22.778Z,12.47
2018-12-06T19:31:50.334Z,13.53
2018-12-06T19:34:17.951Z,12.77
2018-12-06T19:36:45.504Z,13.97
2018-12-06T19:39:13.083Z,14.07
2018-12-06T19:41:40.777Z,12.50
2018-12-06T19:44:08.715Z,16.77
2018-12-06T19:46:36.272Z,12.40
2018-12-06T19:49:03.898Z,12.13
2018-12-06T19:51:31.535Z,12.17
2018-12-06T19:53:59.264Z,13.10
2018-12-06T19:56:26.904Z,13.10
2018-12-06T19:58:54.503Z,13.43
2018-12-06T20:01:22.067Z,12.40
2018-12-06T20:03:49.742Z,12.27
2018-12-06T20:06:17.438Z,12.27
2018-12-06T20:08:45.091Z,12.07
2018-12-06T20:11:12.664Z,13.23
2018-12-06T20:13:40.287Z,12.10
2018-12-06T20:16:07.894Z,12.93
2018-12-06T20:18:35.446Z,11.93
2018-12-06T20:21:03.037Z,12.57
2018-12-06T20:23:30.606Z,13.93
2018-12-06T20:25:58.187Z,13.17
2018-12-06T20:28:26.605Z,14.13
2018-12-06T20:30:54.557Z,14.70
2018-12-06T20:33:22.240Z,14.03
2018-12-06T20:35:49.860Z,16.37
2018-12-06T20:38:17.406Z,16.73
2018-12-06T20:40:44.977Z,15.80
2018-12-06T20:43:12.536Z,15.63
2018-12-06T20:45:40.294Z,17.53
2018-12-06T20:48:07.870Z,17.73
2018-12-06T20:50:35.429Z,17.30
2018-12-06T20:53:03.029Z,18.03
2018-12-06T20:55:30.588Z,18.67
2018-12-06T20:57:58.173Z,19.73
2018-12-06T21:00:25.736Z,18.97
2018-12-06T21:02:53.321Z,21.73
2018-12-06T21:05:20.879Z,19.17
2018-12-06T21:07:48.544Z,18.63
2018-12-06T21:10:16.141Z,17.23
2018-12-06T21:12:43.718Z,18.40
2018-12-06T21:15:11.329Z,17.23
2018-12-06T21:17:38.961Z,15.63
2018-12-06T21:20:06.859Z,16.30
2018-12-06T21:22:34.502Z,15.57
2018-12-06T21:25:02.101Z,16.90
2018-12-06T21:27:29.683Z,15.00
2018-12-06T21:29:57.239Z,15.33
2018-12-06T21:32:24.821Z,14.60
2018-12-06T21:34:52.393Z,13.83
2018-12-06T21:37:19.979Z,14.50
2018-12-06T21:39:47.542Z,14.47
2018-12-06T21:42:15.131Z,15.97
2018-12-06T21:44:42.705Z,14.13
2018-12-06T21:47:12.221Z,16.10
2018-12-06T21:49:39.802Z,17.53
2018-12-06T21:52:07.358Z,18.10
2018-12-06T21:54:34.954Z,17.73
2018-12-06T21:57:02.574Z,16.93
2018-12-06T21:59:30.158Z,17.13
2018-12-06T22:05:01.232Z,17.37
2018-12-06T22:07:28.795Z,18.83
2018-12-06T22:09:56.480Z,18.27
2018-12-06T22:12:24.186Z,18.13
2018-12-06T22:14:51.792Z,18.00
2018-12-06T22:17:19.358Z,16.57
2018-12-06T22:19:47.527Z,18.33
2018-12-06T22:22:15.091Z,16.03
2018-12-06T22:24:42.754Z,15.27
2018-12-06T22:27:10.546Z,16.90
2018-12-06T22:29:38.191Z,15.63
2018-12-06T22:32:05.997Z,17.13
2018-12-06T22:34:33.577Z,15.20
2018-12-06T22:37:01.121Z,14.90
2018-12-06T22:39:28.728Z,15.10
2018-12-06T22:41:56.387Z,14.57
2018-12-06T22:44:23.957Z,16.13
2018-12-06T22:46:51.523Z,15.63
2018-12-06T22:49:19.089Z,15.07
2018-12-06T22:51:46.640Z,14.33
2018-12-06T22:54:14.217Z,13.23
2018-12-06T22:56:41.773Z,12.73
2018-12-06T22:59:09.390Z,12.70
2018-12-06T23:01:39.965Z,12.43
2018-12-06T23:04:08.219Z,12.37
2018-12-06T23:06:35.852Z,11.80
2018-12-06T23:09:06.407Z,11.10
2018-12-06T23:11:33.979Z,12.03
2018-12-06T23:14:01.551Z,12.60
2018-12-06T23:16:29.119Z,11.67
2018-12-06T23:18:56.678Z,11.50
2018-12-06T23:21:24.255Z,11.80
2018-12-06T23:23:51.817Z,12.10
2018-12-06T23:26:19.532Z,11.07
2018-12-06T23:28:47.074Z,10.40
2018-12-06T23:31:14.700Z,11.43
2018-12-06T23:33:42.250Z,10.93
2018-12-06T23:36:11.620Z,10.37
2018-12-06T23:38:39.418Z,12.70
2018-12-06T23:41:06.991Z,10.23
2018-12-06T23:43:34.546Z,11.10
2018-12-06T23:46:02.181Z,10.30
2018-12-06T23:48:29.807Z,10.43
2018-12-06T23:51:01.283Z,10.17
2018-12-06T23:53:29.212Z,10.13
2018-12-06T23:55:56.795Z,10.23
2018-12-06T23:58:24.355Z,9.23
